createdAt,value
2023-06-26T00:00:28.933Z,14.60
2023-06-26T00:02:55.617Z,14.18
2023-06-26T00:05:22.098Z,16.67
2023-06-26T00:07:48.626Z,14.18
2023-06-26T00:10:15.070Z,15.57
2023-06-26T00:12:41.534Z,12.73
2023-06-26T00:15:09.123Z,15.07
2023-06-26T00:17:38.251Z,12.82
2023-06-26T00:20:06.449Z,14.27
2023-06-26T00:22:33.134Z,12.80
2023-06-26T00:24:59.605Z,14.65
2023-06-26T00:27:26.760Z,13.40
2023-06-26T00:29:53.974Z,12.43
2023-06-26T00:32:20.519Z,12.25
2023-06-26T00:34:47.924Z,14.98
2023-06-26T00:37:16.656Z,16.45
2023-06-26T00:39:43.168Z,16.38
2023-06-26T00:42:09.904Z,12.25
2023-06-26T00:44:36.507Z,15.15
2023-06-26T00:47:03.218Z,13.30
2023-06-26T00:49:29.724Z,14.43
2023-06-26T00:51:57.405Z,13.10
2023-06-26T00:54:24.282Z,17.02
2023-06-26T00:56:50.756Z,12.18
2023-06-26T00:59:17.320Z,17.45
2023-06-26T01:01:44.059Z,12.90
2023-06-26T01:04:18.658Z,13.82
2023-06-26T01:06:51.245Z,16.75
2023-06-26T01:09:20.268Z,13.20
2023-06-26T01:11:47.775Z,14.88
2023-06-26T01:14:15.548Z,15.52
2023-06-26T01:16:48.632Z,12.85
2023-06-26T01:19:27.966Z,15.98
2023-06-26T01:22:35.723Z,14.43
2023-06-26T01:25:21.773Z,14.40
2023-06-26T01:27:51.185Z,15.30
2023-06-26T01:30:19.000Z,13.05
2023-06-26T01:32:46.455Z,12.60
2023-06-26T01:35:14.531Z,20.65
2023-06-26T01:37:41.053Z,15.18
2023-06-26T01:40:09.086Z,19.30
2023-06-26T01:42:35.754Z,13.73
2023-06-26T01:45:22.649Z,19.73
2023-06-26T01:47:52.222Z,13.68
2023-06-26T01:50:23.767Z,12.27
2023-06-26T01:53:17.869Z,12.73
2023-06-26T01:55:51.773Z,15.85
2023-06-26T01:58:21.844Z,15.45
2023-06-26T02:00:48.492Z,13.20
2023-06-26T02:03:15.170Z,12.52
2023-06-26T02:05:41.902Z,16.20
2023-06-26T02:08:10.078Z,11.65
2023-06-26T02:10:37.225Z,12.27
2023-06-26T02:13:03.932Z,15.95
2023-06-26T02:15:30.403Z,13.88
2023-06-26T02:17:56.932Z,13.77
2023-06-26T02:20:23.446Z,11.93
2023-06-26T02:22:49.911Z,12.93
2023-06-26T02:25:16.384Z,13.15
2023-06-26T02:27:43.551Z,10.55
2023-06-26T02:30:10.480Z,11.45
2023-06-26T02:32:37.096Z,8.88
2023-06-26T02:35:03.899Z,7.07
2023-06-26T02:37:30.368Z,10.80
2023-06-26T02:39:57.138Z,5.50
2023-06-26T02:42:23.603Z,6.63
2023-06-26T02:44:50.069Z,10.07
2023-06-26T02:47:16.614Z,8.43
2023-06-26T02:49:44.824Z,9.60
2023-06-26T02:52:11.772Z,14.10
2023-06-26T02:54:38.217Z,13.50
2023-06-26T02:57:05.537Z,12.35
2023-06-26T02:59:33.903Z,15.60
2023-06-26T03:02:00.481Z,13.00
2023-06-26T03:04:32.349Z,21.85
2023-06-26T03:07:00.636Z,14.05
2023-06-26T03:09:27.318Z,16.65
2023-06-26T03:11:54.168Z,17.08
2023-06-26T03:14:21.314Z,21.17
2023-06-26T03:16:47.916Z,17.00
2023-06-26T03:19:14.633Z,22.63
2023-06-26T03:22:01.096Z,15.05
2023-06-26T03:24:28.129Z,14.10
2023-06-26T03:26:54.655Z,15.18
2023-06-26T03:29:21.228Z,13.82
2023-06-26T03:31:48.849Z,16.52
2023-06-26T03:34:15.611Z,15.23
2023-06-26T03:36:42.442Z,14.00
2023-06-26T03:39:09.515Z,14.07
2023-06-26T03:41:36.296Z,14.15
2023-06-26T03:44:03.152Z,18.05
2023-06-26T03:46:35.930Z,14.57
2023-06-26T03:49:02.470Z,19.63
2023-06-26T03:51:28.970Z,15.65
2023-06-26T03:53:55.452Z,16.50
2023-06-26T03:56:22.128Z,16.52
2023-06-26T03:58:49.347Z,15.40
2023-06-26T04:01:15.840Z,18.23
2023-06-26T04:03:43.624Z,15.73
2023-06-26T04:06:11.828Z,17.05
2023-06-26T04:08:38.792Z,16.77
2023-06-26T04:11:06.142Z,18.92
2023-06-26T04:13:32.590Z,19.30
2023-06-26T04:15:59.041Z,20.77
2023-06-26T04:18:25.484Z,22.08
2023-06-26T04:21:09.976Z,20.42
2023-06-26T04:23:36.578Z,19.17
2023-06-26T04:26:03.859Z,21.90
2023-06-26T04:28:30.415Z,18.83
2023-06-26T04:30:56.899Z,25.38
2023-06-26T04:33:24.458Z,21.42
2023-06-26T04:35:50.949Z,25.35
2023-06-26T04:38:17.425Z,20.73
2023-06-26T04:40:43.881Z,21.15
2023-06-26T04:43:10.516Z,19.10
2023-06-26T04:45:37.435Z,21.70
2023-06-26T04:48:04.396Z,20.80
2023-06-26T04:50:32.082Z,19.05
2023-06-26T04:52:58.667Z,20.98
2023-06-26T04:55:25.464Z,21.13
2023-06-26T04:57:52.205Z,21.70
2023-06-26T05:00:19.144Z,22.75
2023-06-26T05:02:46.298Z,20.25
2023-06-26T05:05:12.865Z,19.05
2023-06-26T05:07:39.427Z,20.52
2023-06-26T05:10:06.281Z,22.98
2023-06-26T05:12:32.756Z,21.95
2023-06-26T05:14:59.230Z,21.25
2023-06-26T05:17:25.785Z,20.27
2023-06-26T05:19:52.287Z,23.40
2023-06-26T05:22:19.362Z,21.38
2023-06-26T05:24:47.742Z,21.92
2023-06-26T05:27:22.051Z,26.02
2023-06-26T05:29:49.663Z,26.65
2023-06-26T05:32:18.739Z,21.75
2023-06-26T05:34:52.318Z,21.30
2023-06-26T05:37:23.185Z,22.63
2023-06-26T05:42:16.669Z,20.50
2023-06-26T05:44:43.147Z,19.38
2023-06-26T05:47:09.635Z,18.10
2023-06-26T05:49:36.230Z,18.15
2023-06-26T05:52:02.959Z,15.20
2023-06-26T05:54:29.684Z,17.75
2023-06-26T05:57:00.390Z,17.55
2023-06-26T06:01:54.665Z,18.30
2023-06-26T06:04:21.148Z,16.88
2023-06-26T06:06:47.750Z,13.73
2023-06-26T06:09:14.235Z,14.00
2023-06-26T06:11:40.853Z,15.25
2023-06-26T06:14:07.585Z,15.23
2023-06-26T06:16:34.043Z,14.88
2023-06-26T06:19:00.513Z,18.40
2023-06-26T06:21:26.962Z,16.27
2023-06-26T06:23:53.428Z,16.40
2023-06-26T06:26:20.012Z,12.27
2023-06-26T06:28:46.468Z,13.85
2023-06-26T06:31:12.922Z,13.30
2023-06-26T06:33:39.365Z,15.27
2023-06-26T06:36:05.916Z,15.85
2023-06-26T06:38:32.830Z,12.10
2023-06-26T06:40:59.311Z,15.73
2023-06-26T06:43:25.765Z,12.60
2023-06-26T06:45:52.315Z,17.75
2023-06-26T06:48:18.812Z,14.10
2023-06-26T06:50:45.258Z,15.00
2023-06-26T06:53:12.002Z,13.10
2023-06-26T06:55:38.453Z,10.93
2023-06-26T06:58:06.143Z,10.25
2023-06-26T07:00:32.969Z,11.45
2023-06-26T07:03:01.323Z,11.18
2023-06-26T07:05:27.971Z,10.70
2023-06-26T07:07:54.421Z,12.68
2023-06-26T07:10:20.853Z,12.82
2023-06-26T07:12:47.850Z,10.75
2023-06-26T07:15:14.299Z,11.73
2023-06-26T07:17:40.853Z,9.68
2023-06-26T07:20:09.381Z,12.02
2023-06-26T07:22:40.035Z,9.63
2023-06-26T07:25:10.231Z,11.82
2023-06-26T07:27:40.787Z,8.85
2023-06-26T07:32:37.056Z,9.52
2023-06-26T07:35:03.765Z,9.63
2023-06-26T07:37:30.361Z,8.05
2023-06-26T07:39:56.948Z,10.05
2023-06-26T07:42:23.441Z,8.48
2023-06-26T07:44:49.926Z,10.60
2023-06-26T07:47:16.581Z,9.82
2023-06-26T07:49:43.119Z,16.13
2023-06-26T07:52:12.391Z,9.10
2023-06-26T07:54:38.970Z,11.73
2023-06-26T07:57:09.908Z,8.93
2023-06-26T07:59:36.737Z,8.80
2023-06-26T08:02:03.532Z,10.18
2023-06-26T08:04:34.858Z,11.98
2023-06-26T08:07:02.557Z,8.85
2023-06-26T08:09:30.360Z,10.82
2023-06-26T08:11:58.067Z,7.80
2023-06-26T08:14:24.609Z,9.60
2023-06-26T08:16:51.643Z,7.32
2023-06-26T08:19:18.624Z,6.72
2023-06-26T08:21:46.707Z,12.20
2023-06-26T08:24:20.158Z,6.03
2023-06-26T08:26:47.924Z,8.07
2023-06-26T08:29:14.398Z,7.03
2023-06-26T08:31:41.653Z,6.57
2023-06-26T08:34:08.745Z,6.72
2023-06-26T08:36:35.240Z,7.18
2023-06-26T08:39:01.733Z,6.15
2023-06-26T08:41:28.279Z,7.22
2023-06-26T08:43:54.892Z,5.88
2023-06-26T08:46:21.360Z,6.20
2023-06-26T08:48:56.950Z,6.45
2023-06-26T08:51:27.167Z,6.13
2023-06-26T08:54:01.759Z,5.88
2023-06-26T08:56:32.945Z,7.30
2023-06-26T08:58:59.584Z,7.47
2023-06-26T09:01:26.447Z,5.40
2023-06-26T09:03:53.326Z,7.45
2023-06-26T09:06:20.012Z,6.00
2023-06-26T09:08:47.075Z,7.78
2023-06-26T09:11:13.560Z,7.72
2023-06-26T09:13:40.834Z,7.97
2023-06-26T09:16:09.164Z,6.95
2023-06-26T09:18:36.213Z,6.15
2023-06-26T09:21:09.090Z,5.78
2023-06-26T09:23:36.578Z,9.63
2023-06-26T09:26:04.935Z,4.88
2023-06-26T09:28:34.252Z,5.22
2023-06-26T09:31:08.946Z,5.77
2023-06-26T09:33:38.091Z,5.28
2023-06-26T09:36:20.250Z,5.55
2023-06-26T09:38:46.701Z,4.90
2023-06-26T09:41:16.393Z,5.35
2023-06-26T09:43:52.358Z,6.35
2023-06-26T09:46:26.926Z,6.43
2023-06-26T09:49:05.407Z,7.97
2023-06-26T09:51:33.672Z,7.40
2023-06-26T09:54:01.188Z,8.95
2023-06-26T09:56:29.181Z,6.13
2023-06-26T09:58:58.236Z,5.88
2023-06-26T10:01:25.850Z,8.32
2023-06-26T10:03:53.013Z,5.43
2023-06-26T10:06:23.192Z,6.50
2023-06-26T10:11:20.185Z,6.38
2023-06-26T10:13:50.311Z,5.85
2023-06-26T10:18:53.991Z,6.80
2023-06-26T10:21:23.257Z,7.00
2023-06-26T10:23:52.844Z,5.37
2023-06-26T10:26:22.197Z,5.68
2023-06-26T10:28:53.129Z,4.73
2023-06-26T10:31:24.116Z,7.65
2023-06-26T10:33:51.198Z,4.25
2023-06-26T10:36:19.900Z,7.22
2023-06-26T10:38:54.494Z,5.50
2023-06-26T10:41:23.543Z,7.15
2023-06-26T10:44:00.646Z,5.88
2023-06-26T10:46:27.957Z,5.28
2023-06-26T10:48:59.838Z,9.38
2023-06-26T10:51:30.076Z,6.72
2023-06-26T10:53:57.654Z,5.47
2023-06-26T10:56:43.913Z,4.80
2023-06-26T10:59:19.170Z,5.97
2023-06-26T11:01:48.070Z,5.20
2023-06-26T11:04:17.506Z,8.77
2023-06-26T11:06:46.998Z,5.28
2023-06-26T11:09:16.604Z,5.22
2023-06-26T11:11:52.192Z,5.63
2023-06-26T11:14:20.206Z,7.53
2023-06-26T11:16:46.928Z,6.03
2023-06-26T11:19:14.924Z,5.85
2023-06-26T11:21:41.725Z,5.15
2023-06-26T11:24:08.748Z,5.32
2023-06-26T11:26:45.658Z,5.57
2023-06-26T11:29:13.173Z,6.57
2023-06-26T11:31:41.433Z,5.75
2023-06-26T11:34:13.507Z,6.50
2023-06-26T11:36:43.212Z,5.32
2023-06-26T11:39:09.791Z,5.65
2023-06-26T11:41:37.506Z,6.13
2023-06-26T11:44:05.298Z,9.40
2023-06-26T11:46:32.863Z,6.30
2023-06-26T11:48:59.586Z,7.03
2023-06-26T11:51:29.732Z,6.50
2023-06-26T11:56:27.150Z,6.47
2023-06-26T11:59:03.205Z,6.55
2023-06-26T12:01:34.072Z,7.30
2023-06-26T12:04:04.028Z,6.65
2023-06-26T12:06:32.563Z,6.55
2023-06-26T12:09:01.539Z,6.70
2023-06-26T12:11:30.904Z,6.45
2023-06-26T12:13:58.587Z,6.70
2023-06-26T12:16:25.415Z,6.85
2023-06-26T12:18:52.148Z,6.80
2023-06-26T12:21:38.872Z,6.82
2023-06-26T12:24:07.339Z,9.73
2023-06-26T12:26:37.990Z,7.35
2023-06-26T12:29:08.782Z,6.07
2023-06-26T12:31:37.222Z,8.63
2023-06-26T12:34:10.359Z,6.80
2023-06-26T12:36:49.823Z,6.57
2023-06-26T12:39:20.691Z,7.05
2023-06-26T12:41:53.404Z,7.55
2023-06-26T12:44:25.855Z,6.80
2023-06-26T12:46:59.122Z,6.80
2023-06-26T12:49:38.651Z,8.02
2023-06-26T12:52:07.574Z,8.35
2023-06-26T12:54:34.968Z,6.73
2023-06-26T12:57:01.617Z,7.40
2023-06-26T12:59:28.099Z,8.80
2023-06-26T13:01:54.665Z,7.72
2023-06-26T13:04:21.311Z,7.75
2023-06-26T13:06:47.788Z,6.40
2023-06-26T13:09:14.293Z,8.60
2023-06-26T13:11:40.761Z,6.47
2023-06-26T13:14:11.023Z,9.02
2023-06-26T13:16:38.368Z,6.95
2023-06-26T13:19:04.802Z,7.18
2023-06-26T13:21:31.299Z,10.55
2023-06-26T13:23:58.290Z,12.43
2023-06-26T13:26:36.801Z,7.75
2023-06-26T13:29:04.599Z,9.27
2023-06-26T13:31:31.223Z,9.50
2023-06-26T13:33:59.464Z,7.13
2023-06-26T13:36:26.231Z,15.23
2023-06-26T13:38:57.170Z,7.70
2023-06-26T13:41:24.859Z,8.23
2023-06-26T13:43:51.777Z,11.70
2023-06-26T13:46:19.166Z,7.25
2023-06-26T13:48:46.727Z,6.57
2023-06-26T13:51:13.655Z,7.35
2023-06-26T13:53:40.187Z,7.07
2023-06-26T13:56:06.709Z,8.60
2023-06-26T13:58:35.535Z,19.00
2023-06-26T14:01:01.975Z,22.52
2023-06-26T14:03:31.404Z,17.70
2023-06-26T14:05:57.987Z,24.15
2023-06-26T14:08:24.531Z,22.98
2023-06-26T14:10:51.047Z,20.35
2023-06-26T14:13:17.874Z,38.10
2023-06-26T14:15:44.965Z,25.25
2023-06-26T14:18:11.818Z,19.58
2023-06-26T14:20:38.529Z,40.17
2023-06-26T14:23:05.264Z,20.80
2023-06-26T14:25:31.759Z,20.88
2023-06-26T14:27:59.386Z,16.67
2023-06-26T14:30:26.073Z,18.02
2023-06-26T14:32:52.617Z,13.48
2023-06-26T14:35:19.381Z,19.15
2023-06-26T14:37:45.852Z,20.85
2023-06-26T14:40:12.915Z,18.90
2023-06-26T14:42:39.846Z,18.65
2023-06-26T14:45:07.528Z,12.40
2023-06-26T14:47:34.693Z,9.38
2023-06-26T14:50:01.443Z,13.50
2023-06-26T14:52:27.946Z,14.10
2023-06-26T14:54:54.448Z,13.63
2023-06-26T14:57:20.948Z,14.65
2023-06-26T14:59:47.554Z,11.95
2023-06-26T15:02:14.092Z,9.90
2023-06-26T15:04:40.582Z,13.55
2023-06-26T15:07:07.060Z,9.77
2023-06-26T15:09:33.591Z,10.35
2023-06-26T15:12:00.236Z,12.52
2023-06-26T15:14:26.693Z,11.38
2023-06-26T15:16:53.341Z,13.23
2023-06-26T15:19:19.976Z,12.50
2023-06-26T15:21:46.490Z,14.23
2023-06-26T15:24:12.983Z,11.93
2023-06-26T15:26:39.569Z,13.00
2023-06-26T15:29:06.528Z,14.52
2023-06-26T15:31:33.191Z,20.67
2023-06-26T15:33:59.723Z,11.93
2023-06-26T15:36:27.138Z,13.75
2023-06-26T15:38:53.676Z,16.73
2023-06-26T15:41:20.208Z,11.20
2023-06-26T15:43:46.729Z,16.02
2023-06-26T15:46:13.220Z,14.48
2023-06-26T15:48:41.880Z,11.95
2023-06-26T15:51:08.756Z,11.70
2023-06-26T15:53:38.401Z,12.15
2023-06-26T15:56:09.868Z,13.85
2023-06-26T15:58:36.954Z,10.32
2023-06-26T16:01:04.220Z,9.13
2023-06-26T16:03:31.064Z,11.30
2023-06-26T16:05:57.535Z,11.02
2023-06-26T16:08:24.148Z,9.43
2023-06-26T16:10:50.672Z,10.18
2023-06-26T16:13:19.717Z,13.70
2023-06-26T16:15:46.925Z,10.68
2023-06-26T16:18:13.400Z,11.27
2023-06-26T16:20:39.867Z,11.85
2023-06-26T16:23:06.323Z,12.98
2023-06-26T16:25:32.857Z,13.60
2023-06-26T16:27:59.786Z,13.95
2023-06-26T16:30:26.300Z,16.02
2023-06-26T16:32:54.668Z,14.77
2023-06-26T16:35:21.207Z,9.02
2023-06-26T16:37:47.672Z,14.65
2023-06-26T16:40:15.332Z,13.63
2023-06-26T16:42:41.890Z,12.48
2023-06-26T16:45:09.330Z,15.32
2023-06-26T16:47:38.673Z,11.27
2023-06-26T16:50:07.404Z,10.48
2023-06-26T16:52:33.875Z,9.18
2023-06-26T16:55:00.364Z,11.95
2023-06-26T16:57:26.838Z,14.50
2023-06-26T16:59:53.989Z,8.88
2023-06-26T17:02:20.610Z,13.90
2023-06-26T17:04:47.108Z,11.90
2023-06-26T17:07:13.622Z,10.85
2023-06-26T17:09:40.141Z,10.75
2023-06-26T17:12:06.964Z,9.70
2023-06-26T17:14:33.424Z,12.40
2023-06-26T17:16:59.876Z,12.43
2023-06-26T17:19:26.598Z,11.60
2023-06-26T17:21:53.127Z,11.95
2023-06-26T17:24:19.667Z,10.98
2023-06-26T17:26:46.133Z,9.88
2023-06-26T17:29:12.639Z,11.75
2023-06-26T17:31:41.452Z,12.30
2023-06-26T17:34:08.440Z,11.52
2023-06-26T17:36:34.894Z,18.05
2023-06-26T17:39:03.485Z,12.80
2023-06-26T17:41:29.964Z,12.80
2023-06-26T17:43:56.415Z,10.80
2023-06-26T17:46:22.975Z,19.00
2023-06-26T17:48:49.523Z,13.45
2023-06-26T17:51:16.023Z,12.23
2023-06-26T17:53:42.494Z,13.65
2023-06-26T17:56:08.980Z,12.70
2023-06-26T17:58:35.662Z,13.45
2023-06-26T18:01:02.174Z,12.82
2023-06-26T18:03:28.959Z,8.45
2023-06-26T18:05:55.555Z,9.18
2023-06-26T18:08:22.052Z,13.55
2023-06-26T18:10:48.575Z,12.95
2023-06-26T18:13:15.099Z,10.25
2023-06-26T18:15:41.603Z,12.20
2023-06-26T18:18:08.122Z,17.38
2023-06-26T18:20:34.697Z,10.85
2023-06-26T18:23:01.163Z,11.82
2023-06-26T18:25:27.629Z,13.43
2023-06-26T18:27:54.134Z,11.55
2023-06-26T18:30:20.611Z,11.05
2023-06-26T18:32:47.337Z,7.20
2023-06-26T18:35:13.925Z,10.52
2023-06-26T18:37:40.555Z,6.18
2023-06-26T18:40:09.786Z,8.90
2023-06-26T18:42:36.260Z,7.80
2023-06-26T18:45:02.719Z,9.43
2023-06-26T18:47:29.600Z,9.15
2023-06-26T18:49:56.101Z,7.60
2023-06-26T18:52:22.559Z,10.35
2023-06-26T18:54:49.021Z,10.43
2023-06-26T18:57:15.687Z,10.15
2023-06-26T18:59:42.187Z,5.80
2023-06-26T19:02:08.645Z,6.78
2023-06-26T19:04:35.171Z,8.20
2023-06-26T19:07:02.087Z,10.18
2023-06-26T19:09:28.689Z,13.13
2023-06-26T19:11:55.165Z,8.48
2023-06-26T19:14:21.633Z,3.63
2023-06-26T19:16:48.157Z,7.13
2023-06-26T19:19:14.692Z,12.02
2023-06-26T19:21:41.258Z,6.18
2023-06-26T19:24:07.876Z,5.82
2023-06-26T19:26:35.731Z,10.20
2023-06-26T19:29:03.237Z,10.70
2023-06-26T19:31:29.738Z,5.80
2023-06-26T19:33:56.294Z,7.28
2023-06-26T19:36:22.952Z,9.07
2023-06-26T19:38:49.450Z,5.35
2023-06-26T19:41:15.912Z,9.65
2023-06-26T19:43:42.394Z,7.18
2023-06-26T19:46:08.845Z,8.75
2023-06-26T19:48:37.451Z,17.88
2023-06-26T19:51:04.478Z,5.25
2023-06-26T19:53:31.129Z,6.20
2023-06-26T19:55:57.731Z,8.02
2023-06-26T19:58:24.191Z,5.25
2023-06-26T20:00:50.630Z,8.27
2023-06-26T20:03:17.273Z,5.10
2023-06-26T20:05:44.265Z,7.97
2023-06-26T20:08:10.772Z,3.05
2023-06-26T20:10:37.309Z,9.48
2023-06-26T20:13:03.764Z,8.32
2023-06-26T20:15:30.296Z,10.60
2023-06-26T20:17:56.808Z,10.18
2023-06-26T20:20:23.333Z,8.90
2023-06-26T20:22:50.488Z,10.23
2023-06-26T20:25:16.973Z,6.43
2023-06-26T20:27:43.429Z,6.82
2023-06-26T20:30:10.337Z,5.35
2023-06-26T20:32:36.827Z,9.25
2023-06-26T20:35:03.364Z,5.90
2023-06-26T20:37:29.830Z,7.90
2023-06-26T20:39:56.470Z,5.82
2023-06-26T20:42:23.246Z,7.38
2023-06-26T20:44:51.349Z,3.15
2023-06-26T20:47:20.177Z,9.00
2023-06-26T20:49:47.214Z,3.63
2023-06-26T20:52:18.029Z,4.28
2023-06-26T20:57:11.953Z,5.30
2023-06-26T20:59:39.690Z,5.15
2023-06-26T21:02:06.746Z,3.10
2023-06-26T21:04:36.523Z,6.88
2023-06-26T21:07:06.108Z,4.00
2023-06-26T21:09:32.660Z,4.85
2023-06-26T21:11:59.693Z,4.68
2023-06-26T21:14:26.198Z,5.55
2023-06-26T21:16:52.646Z,7.75
2023-06-26T21:19:19.142Z,2.83
2023-06-26T21:21:45.623Z,4.78
2023-06-26T21:24:12.085Z,5.97
2023-06-26T21:26:39.504Z,3.50
2023-06-26T21:29:06.133Z,4.22
2023-06-26T21:31:32.644Z,2.78
2023-06-26T21:33:59.651Z,5.75
2023-06-26T21:36:26.137Z,6.78
2023-06-26T21:38:52.589Z,4.68
2023-06-26T21:41:19.216Z,4.20
2023-06-26T21:43:46.291Z,5.63
2023-06-26T21:46:12.772Z,4.15
2023-06-26T21:48:39.774Z,4.72
2023-06-26T21:51:06.250Z,3.70
2023-06-26T21:53:32.719Z,5.38
2023-06-26T21:55:59.177Z,3.42
2023-06-26T21:58:25.662Z,3.10
2023-06-26T22:00:52.231Z,2.83
2023-06-26T22:03:18.979Z,2.35
2023-06-26T22:05:45.543Z,2.40
2023-06-26T22:08:12.229Z,12.05
2023-06-26T22:10:38.823Z,5.82
2023-06-26T22:13:05.454Z,3.05
2023-06-26T22:15:31.921Z,3.47
2023-06-26T22:17:58.442Z,6.97
2023-06-26T22:20:25.369Z,5.07
2023-06-26T22:22:52.533Z,5.55
2023-06-26T22:25:19.988Z,4.38
2023-06-26T22:27:48.221Z,6.65
2023-06-26T22:30:15.779Z,6.25
2023-06-26T22:32:43.746Z,5.35
2023-06-26T22:35:12.912Z,3.67
2023-06-26T22:37:39.996Z,4.72
2023-06-26T22:40:08.449Z,5.38
2023-06-26T22:42:36.106Z,4.95
2023-06-26T22:45:03.615Z,4.85
2023-06-26T22:47:30.268Z,8.18
2023-06-26T22:49:57.509Z,6.22
2023-06-26T22:52:23.992Z,5.57
2023-06-26T22:54:50.990Z,4.78
2023-06-26T22:57:17.515Z,4.15
2023-06-26T22:59:44.115Z,8.13
2023-06-26T23:02:10.586Z,4.22
2023-06-26T23:04:37.137Z,6.80
2023-06-26T23:07:03.949Z,11.38
2023-06-26T23:09:30.651Z,3.63
2023-06-26T23:11:57.146Z,6.55
2023-06-26T23:14:23.655Z,5.57
2023-06-26T23:17:04.332Z,6.32
2023-06-26T23:19:35.400Z,10.80
2023-06-26T23:22:02.925Z,4.25
2023-06-26T23:24:33.580Z,6.70
2023-06-26T23:27:00.965Z,7.20
2023-06-26T23:29:27.649Z,8.18
2023-06-26T23:31:54.258Z,4.97
2023-06-26T23:34:20.954Z,7.40
2023-06-26T23:36:50.642Z,8.07
2023-06-26T23:39:20.750Z,4.28
2023-06-26T23:41:51.181Z,5.53
2023-06-26T23:44:21.256Z,5.32
2023-06-26T23:46:48.976Z,5.55
2023-06-26T23:49:16.163Z,6.65
2023-06-26T23:51:42.613Z,9.57
2023-06-26T23:54:09.056Z,6.97
2023-06-26T23:56:35.550Z,12.82
2023-06-26T23:59:02.003Z,7.93
